Time;durP1;ratioP1;P1;durP2;ratioP2;P2;SDS_P1;SDS_P2;PMS_P1;PMS_P2;Temp;Humidity;BMP_temperature;BMP_pressure;BME280_temperature;BME280_humidity;BME280_pressure;Samples;Min_cycle;Max_cycle;Signal;HPM_P1;HPM_P2
2021/10/28 00:12:56;;;;;;;23.13;13.02;;;;;;;10.09;100.00;101957.47;5026992;28;20120;-67
2021/10/28 00:15:30;;;;;;;25.92;13.38;;;;;;;10.10;100.00;101960.13;5025022;28;20076;-66
2021/10/28 00:18:10;;;;;;;26.33;14.13;;;;;;;10.02;100.00;101962.00;5026721;28;20073;-66
2021/10/28 00:20:40;;;;;;;24.88;12.85;;;;;;;10.04;100.00;101959.31;5025194;28;20548;-66
2021/10/28 00:23:09;;;;;;;23.27;13.20;;;;;;;10.06;100.00;101958.41;5027293;28;20088;-66
2021/10/28 00:25:39;;;;;;;26.98;14.90;;;;;;;10.05;100.00;101948.63;5027682;28;20056;-66
2021/10/28 00:28:07;;;;;;;29.38;13.82;;;;;;;10.03;100.00;101955.78;5024654;28;20057;-67
2021/10/28 00:30:35;;;;;;;27.92;13.57;;;;;;;10.01;100.00;101954.91;5024381;28;20088;-67
2021/10/28 00:33:03;;;;;;;26.40;13.13;;;;;;;9.99;100.00;101953.16;5024958;28;20049;-67
2021/10/28 00:35:30;;;;;;;31.05;13.82;;;;;;;9.96;100.00;101948.75;5025047;28;20042;-67
2021/10/28 00:37:59;;;;;;;31.65;15.73;;;;;;;10.02;100.00;101947.78;5025270;28;20060;-66
2021/10/28 00:40:27;;;;;;;29.67;14.45;;;;;;;10.02;100.00;101950.47;5026008;28;20523;-66
2021/10/28 00:42:56;;;;;;;24.83;13.35;;;;;;;9.96;100.00;101943.44;5025256;28;20041;-66
2021/10/28 00:45:25;;;;;;;26.58;14.02;;;;;;;9.95;100.00;101938.97;5028470;28;20175;-66
2021/10/28 00:47:53;;;;;;;31.50;15.60;;;;;;;10.02;100.00;101938.00;5026814;28;20049;-66
2021/10/28 00:50:21;;;;;;;30.90;14.57;;;;;;;10.10;100.00;101933.47;5028417;28;20098;-66
2021/10/28 00:52:49;;;;;;;32.83;15.20;;;;;;;10.05;100.00;101935.31;5025816;28;20047;-67
2021/10/28 00:55:18;;;;;;;26.08;13.73;;;;;;;10.08;100.00;101931.72;5025988;28;20191;-67
2021/10/28 00:57:46;;;;;;;29.65;13.60;;;;;;;10.08;100.00;101924.59;5025965;28;20484;-67
2021/10/28 01:00:14;;;;;;;24.73;12.35;;;;;;;10.07;100.00;101921.97;5028428;28;20053;-67
2021/10/28 01:02:42;;;;;;;25.88;13.15;;;;;;;10.07;100.00;101928.16;5024747;28;20048;-71
2021/10/28 01:05:10;;;;;;;26.55;13.02;;;;;;;10.04;100.00;101920.19;5023750;28;20574;-71
2021/10/28 01:07:38;;;;;;;24.75;12.43;;;;;;;10.00;100.00;101931.81;5026069;28;20052;-72
2021/10/28 01:10:07;;;;;;;26.30;13.18;;;;;;;9.95;100.00;101923.00;5026216;28;20081;-71
2021/10/28 01:12:36;;;;;;;28.70;13.32;;;;;;;9.84;100.00;101917.78;5027375;28;20147;-71
2021/10/28 01:15:12;;;;;;;27.17;13.18;;;;;;;9.80;100.00;101933.84;5026621;28;20072;-72
2021/10/28 01:17:39;;;;;;;29.35;14.45;;;;;;;9.78;100.00;101928.53;5029018;28;20096;-71
2021/10/28 01:20:10;;;;;;;34.58;15.80;;;;;;;9.72;100.00;101926.81;5031381;28;20055;-71
2021/10/28 01:22:39;;;;;;;34.17;16.10;;;;;;;9.63;100.00;101918.91;5030969;28;20041;-72
2021/10/28 01:25:08;;;;;;;33.53;16.05;;;;;;;9.60;100.00;101923.38;5029684;28;20054;-72
2021/10/28 01:27:35;;;;;;;34.90;17.58;;;;;;;9.58;100.00;101919.88;5030790;28;20060;-72
2021/10/28 01:30:05;;;;;;;36.10;16.45;;;;;;;9.51;100.00;101911.91;5028840;28;20055;-71
2021/10/28 01:32:33;;;;;;;35.55;17.85;;;;;;;9.44;100.00;101918.22;5031131;28;20041;-71
2021/10/28 01:35:00;;;;;;;35.90;16.63;;;;;;;9.41;100.00;101912.91;5029881;28;20082;-71
2021/10/28 01:37:29;;;;;;;32.00;17.42;;;;;;;9.37;100.00;101913.84;5030581;28;20052;-71
2021/10/28 01:39:57;;;;;;;37.00;18.80;;;;;;;9.42;100.00;101905.81;5021973;28;20851;-71
2021/10/28 01:42:26;;;;;;;35.72;16.35;;;;;;;9.38;100.00;101909.41;5024329;28;20141;-71
2021/10/28 01:44:54;;;;;;;40.30;18.45;;;;;;;9.37;100.00;101900.53;5031329;28;20530;-71
2021/10/28 01:47:22;;;;;;;33.92;17.80;;;;;;;9.34;100.00;101908.56;5030839;28;20417;-71
2021/10/28 01:49:50;;;;;;;35.60;17.40;;;;;;;9.33;100.00;101898.78;5026942;28;20499;-67
2021/10/28 01:52:18;;;;;;;36.75;17.48;;;;;;;9.29;100.00;101899.72;5022316;28;20051;-66
2021/10/28 01:54:47;;;;;;;34.67;17.05;;;;;;;9.34;100.00;101896.09;5029065;28;20320;-67
2021/10/28 01:57:19;;;;;;;36.17;16.55;;;;;;;9.32;100.00;101897.91;5030116;28;20059;-66
2021/10/28 01:59:48;;;;;;;34.15;16.20;;;;;;;9.27;100.00;101889.09;5028927;28;20123;-66
2021/10/28 02:02:16;;;;;;;32.15;15.88;;;;;;;9.26;100.00;101894.44;5030782;28;20213;-66
2021/10/28 02:04:44;;;;;;;34.08;17.73;;;;;;;9.22;100.00;101887.38;5029481;28;20578;-67
2021/10/28 02:07:11;;;;;;;36.60;16.73;;;;;;;9.22;100.00;101882.06;5027438;28;20057;-69
2021/10/28 02:09:39;;;;;;;39.08;16.92;;;;;;;9.21;100.00;101875.84;5030812;28;20056;-67
2021/10/28 02:12:09;;;;;;;34.35;16.23;;;;;;;9.21;100.00;101881.19;5024816;28;20063;-67
2021/10/28 02:14:37;;;;;;;34.00;15.82;;;;;;;9.21;100.00;101874.94;5029251;28;20167;-66
2021/10/28 02:17:05;;;;;;;34.13;15.85;;;;;;;9.11;100.00;101874.19;5028604;28;20057;-66
2021/10/28 02:19:33;;;;;;;37.90;17.83;;;;;;;9.20;100.00;101875.88;5029187;28;20506;-66
2021/10/28 02:22:00;;;;;;;33.78;16.88;;;;;;;9.20;100.00;101879.41;5027515;28;20754;-67
2021/10/28 02:24:29;;;;;;;36.22;16.38;;;;;;;9.16;100.00;101880.34;5031965;28;20051;-66
2021/10/28 02:26:59;;;;;;;37.13;15.88;;;;;;;9.08;100.00;101877.72;5025981;28;20122;-66
2021/10/28 02:29:28;;;;;;;39.33;16.23;;;;;;;9.06;100.00;101878.63;5028350;28;20085;-66
2021/10/28 02:31:57;;;;;;;31.25;16.08;;;;;;;9.03;100.00;101882.22;5029605;28;20462;-67
2021/10/28 02:34:26;;;;;;;29.77;15.63;;;;;;;8.97;100.00;101875.19;5030402;28;20049;-66
2021/10/28 02:36:53;;;;;;;30.25;15.50;;;;;;;8.95;100.00;101876.94;5029506;28;20444;-67
2021/10/28 02:39:21;;;;;;;31.88;14.55;;;;;;;8.92;100.00;101873.44;5026258;28;20044;-66
2021/10/28 02:41:49;;;;;;;31.05;14.45;;;;;;;8.90;100.00;101870.78;5029622;28;20163;-67
2021/10/28 02:44:17;;;;;;;30.50;13.98;;;;;;;8.87;100.00;101864.59;5027598;28;20049;-67
2021/10/28 02:46:46;;;;;;;30.40;14.98;;;;;;;8.84;100.00;101864.66;5027535;28;20053;-67
2021/10/28 02:49:14;;;;;;;31.95;14.50;;;;;;;8.81;100.00;101854.03;5026658;28;20396;-67
2021/10/28 02:51:46;;;;;;;34.22;14.88;;;;;;;8.85;100.00;101853.09;5024074;28;20301;-67
2021/10/28 02:54:14;;;;;;;31.85;14.88;;;;;;;8.86;100.00;101852.22;5025528;28;20140;-67
2021/10/28 02:56:42;;;;;;;34.35;17.05;;;;;;;8.82;100.00;101843.38;5025883;28;20049;-67
2021/10/28 02:59:10;;;;;;;35.88;16.35;;;;;;;8.78;100.00;101847.84;5030717;28;20053;-67
2021/10/28 03:01:42;;;;;;;35.38;17.35;;;;;;;8.78;100.00;101842.53;5024712;28;20144;-66
2021/10/28 03:04:13;;;;;;;32.20;16.88;;;;;;;8.77;100.00;101842.53;5024271;28;20103;-67
2021/10/28 03:06:41;;;;;;;31.00;15.35;;;;;;;8.76;100.00;101841.63;5029507;28;20076;-67
2021/10/28 03:09:10;;;;;;;37.97;17.10;;;;;;;8.77;100.00;101839.88;5025858;28;20049;-67
2021/10/28 03:11:40;;;;;;;31.92;15.27;;;;;;;8.79;100.00;101835.41;5026456;28;20052;-66
2021/10/28 03:14:11;;;;;;;33.80;15.13;;;;;;;8.73;100.00;101831.00;5024658;28;20049;-66
2021/10/28 03:16:46;;;;;;;33.15;15.80;;;;;;;8.72;100.00;101833.72;5029952;28;20056;-66
2021/10/28 03:19:37;;;;;;;30.38;15.38;;;;;;;8.70;100.00;101831.06;5025963;28;20207;-66
2021/10/28 03:27:38;;;;;;;29.35;15.43;;;;;;;8.58;100.00;101824.06;5027290;28;20057;-66
2021/10/28 03:30:08;;;;;;;29.15;15.23;;;;;;;8.62;100.00;101824.03;5028045;28;20085;-66
2021/10/28 03:32:36;;;;;;;31.92;14.18;;;;;;;8.57;100.00;101819.63;5028112;28;20409;-66
2021/10/28 03:35:09;;;;;;;30.25;15.93;;;;;;;8.57;100.00;101816.09;5027591;28;20041;-66
2021/10/28 03:37:41;;;;;;;25.80;14.65;;;;;;;8.57;100.00;101810.75;5024669;28;20075;-66
2021/10/28 04:05:44;;;;;;;27.23;14.32;;;;;;;8.57;100.00;101800.13;5027373;28;20087;-71
2021/10/28 04:19:42;;;;;;;26.63;14.25;;;;;;;8.45;100.00;101789.59;4990750;28;20049;-66
2021/10/28 04:31:17;;;;;;;26.88;14.95;;;;;;;8.35;100.00;101778.09;5027245;28;20784;-67
2021/10/28 04:33:45;;;;;;;29.17;14.98;;;;;;;8.29;100.00;101788.78;5026712;28;20049;-67
2021/10/28 04:36:12;;;;;;;28.52;14.32;;;;;;;8.34;100.00;101779.88;5024721;28;20252;-67
2021/10/28 04:38:40;;;;;;;26.60;13.18;;;;;;;8.32;100.00;101780.78;5028690;28;20041;-67
2021/10/28 04:41:10;;;;;;;26.52;14.57;;;;;;;8.36;100.00;101778.09;5025188;28;20049;-67
2021/10/28 04:43:37;;;;;;;24.63;13.35;;;;;;;8.30;100.00;101780.78;5027235;28;20048;-67
2021/10/28 04:46:05;;;;;;;27.38;13.50;;;;;;;8.26;100.00;101776.41;5024928;28;20518;-67
2021/10/28 04:48:33;;;;;;;25.13;13.30;;;;;;;8.27;100.00;101777.28;5024772;28;20524;-67
2021/10/28 04:51:00;;;;;;;24.38;13.00;;;;;;;8.28;100.00;101779.06;5026844;28;20384;-67
2021/10/28 04:53:29;;;;;;;26.63;13.95;;;;;;;8.31;100.00;101781.66;5027364;28;20524;-67
2021/10/28 04:55:57;;;;;;;32.22;13.93;;;;;;;8.32;100.00;101772.81;5029632;28;20069;-67
2021/10/28 04:58:26;;;;;;;27.67;13.40;;;;;;;8.35;100.00;101778.97;5030928;28;20147;-67
2021/10/28 05:00:54;;;;;;;24.85;13.15;;;;;;;8.35;100.00;101768.34;5030928;28;20118;-67
2021/10/28 05:03:22;;;;;;;26.52;13.55;;;;;;;8.32;100.00;101772.81;5030214;28;20049;-68
2021/10/28 05:05:50;;;;;;;24.88;13.13;;;;;;;8.33;100.00;101766.59;5028472;28;20050;-66
2021/10/28 05:08:18;;;;;;;26.67;13.05;;;;;;;8.39;100.00;101767.44;5031005;28;20148;-67
2021/10/28 05:10:46;;;;;;;24.95;13.15;;;;;;;8.40;100.00;101765.66;5029976;28;20152;-72
2021/10/28 05:13:15;;;;;;;28.67;13.57;;;;;;;8.43;100.00;101768.31;5025714;28;20242;-73
2021/10/28 05:15:45;;;;;;;22.95;13.70;;;;;;;8.44;100.00;101771.84;5028763;28;20485;-72
2021/10/28 05:18:14;;;;;;;23.52;12.55;;;;;;;8.47;100.00;101771.84;5029906;28;20477;-72
2021/10/28 05:20:43;;;;;;;27.85;12.77;;;;;;;8.41;100.00;101772.72;5027180;28;20058;-72
2021/10/28 05:23:11;;;;;;;23.60;11.52;;;;;;;8.37;100.00;101771.00;5031088;28;20048;-73
2021/10/28 05:25:39;;;;;;;21.73;12.00;;;;;;;8.37;100.00;101771.00;5031037;28;20515;-72
2021/10/28 05:28:07;;;;;;;22.27;11.95;;;;;;;8.36;100.00;101764.78;5027650;28;20080;-72
2021/10/28 05:30:35;;;;;;;24.73;11.93;;;;;;;8.36;100.00;101763.88;5028587;28;20055;-73
2021/10/28 05:33:04;;;;;;;24.45;13.68;;;;;;;8.36;100.00;101755.91;5029544;28;20044;-72
2021/10/28 05:35:33;;;;;;;23.08;11.48;;;;;;;8.37;100.00;101758.56;5028526;28;20480;-72
2021/10/28 05:38:01;;;;;;;22.00;12.18;;;;;;;8.32;100.00;101757.72;5030221;28;20051;-72
2021/10/28 05:40:29;;;;;;;28.90;12.40;;;;;;;8.33;100.00;101756.84;5026168;28;20077;-72
2021/10/28 05:42:56;;;;;;;24.60;12.32;;;;;;;8.36;100.00;101753.25;5030000;28;21234;-71
2021/10/28 05:45:25;;;;;;;21.33;11.18;;;;;;;8.35;100.00;101752.38;5029900;28;20052;-72
2021/10/28 05:47:52;;;;;;;23.33;12.13;;;;;;;8.39;100.00;101755.91;5026788;28;20091;-72
2021/10/28 05:50:24;;;;;;;21.85;12.25;;;;;;;8.41;100.00;101749.69;5029809;28;20530;-72
2021/10/28 05:52:54;;;;;;;22.55;10.80;;;;;;;8.41;100.00;101760.31;5025848;28;20045;-72
2021/10/28 05:55:24;;;;;;;28.95;12.60;;;;;;;8.46;100.00;101748.78;5028522;28;20132;-72
2021/10/28 05:57:52;;;;;;;22.25;11.80;;;;;;;8.46;100.00;101747.00;5030750;28;20466;-72
2021/10/28 06:00:21;;;;;;;24.20;12.57;;;;;;;8.49;100.00;101751.41;5024557;28;20284;-73
2021/10/28 06:02:49;;;;;;;22.48;12.15;;;;;;;8.47;100.00;101756.75;5021681;28;20136;-71
2021/10/28 06:05:17;;;;;;;27.55;12.60;;;;;;;8.47;100.00;101756.75;5026573;28;20045;-74
2021/10/28 06:07:46;;;;;;;24.90;12.00;;;;;;;8.50;100.00;101747.88;5026210;28;20052;-73
2021/10/28 06:10:16;;;;;;;24.95;12.00;;;;;;;8.43;100.00;101752.38;5027532;28;20071;-73
2021/10/28 06:12:47;;;;;;;24.20;11.32;;;;;;;8.44;100.00;101754.13;5026061;28;20053;-67
2021/10/28 06:15:15;;;;;;;29.30;11.77;;;;;;;8.43;100.00;101755.03;5028450;28;20180;-67
2021/10/28 06:17:49;;;;;;;25.52;11.43;;;;;;;8.45;100.00;101755.00;5027336;28;20338;-67
2021/10/28 06:20:18;;;;;;;23.52;11.50;;;;;;;8.44;100.00;101754.13;5022722;28;20056;-67
2021/10/28 06:22:48;;;;;;;25.15;12.85;;;;;;;8.49;100.00;101748.75;5024596;28;20046;-67
2021/10/28 06:25:16;;;;;;;21.63;10.10;;;;;;;8.46;100.00;101746.13;5027727;28;20267;-67
2021/10/28 06:27:44;;;;;;;22.70;11.60;;;;;;;8.47;100.00;101743.44;5025245;28;20139;-67
2021/10/28 06:30:13;;;;;;;20.60;10.85;;;;;;;8.44;100.00;101746.13;5028819;28;20457;-67
2021/10/28 06:32:45;;;;;;;21.80;11.30;;;;;;;8.46;100.00;101743.47;5023347;28;20059;-67
2021/10/28 06:35:12;;;;;;;19.35;10.93;;;;;;;8.41;100.00;101739.03;5027468;28;20203;-67
2021/10/28 06:37:45;;;;;;;19.65;11.57;;;;;;;8.39;100.00;101734.63;5029079;28;20056;-67
2021/10/28 06:40:17;;;;;;;21.38;10.52;;;;;;;8.41;100.00;101735.47;5025563;28;20292;-73
2021/10/28 06:42:45;;;;;;;20.80;10.60;;;;;;;8.43;100.00;101732.84;5025699;28;20049;-72
2021/10/28 06:45:13;;;;;;;22.02;10.50;;;;;;;8.48;100.00;101745.22;5024319;28;20044;-72
2021/10/28 06:47:41;;;;;;;22.08;10.75;;;;;;;8.47;100.00;101726.63;5023553;28;20499;-72
2021/10/28 06:50:12;;;;;;;24.60;11.00;;;;;;;8.54;100.00;101731.84;5024379;28;20053;-73
2021/10/28 06:52:49;;;;;;;20.38;10.63;;;;;;;8.51;100.00;101725.69;5018947;28;20495;-72
2021/10/28 06:55:29;;;;;;;20.20;9.85;;;;;;;8.55;100.00;101730.97;5021943;28;20044;-73
2021/10/28 07:02:14;;;;;;;24.27;11.15;;;;;;;8.54;100.00;101731.84;5025906;28;20061;-73
2021/10/28 07:03:33;;;;;;;20.42;9.98;;;;;;;8.65;100.00;101728.22;5023412;28;20207;-71
2021/10/28 07:06:04;;;;;;;19.58;10.63;;;;;;;8.62;100.00;101723.81;5025576;28;20580;-68
2021/10/28 07:08:34;;;;;;;22.25;11.60;;;;;;;8.65;100.00;101733.53;5022620;28;20356;-68
2021/10/28 07:11:08;;;;;;;23.45;11.32;;;;;;;8.65;100.00;101728.22;5027284;28;20049;-68
2021/10/28 07:13:38;;;;;;;19.30;10.35;;;;;;;8.65;100.00;101725.53;5025513;28;20540;-68
2021/10/28 07:16:14;;;;;;;18.70;10.23;;;;;;;8.70;100.00;101726.38;5024910;28;20141;-68
2021/10/28 07:18:51;;;;;;;22.38;11.48;;;;;;;8.79;100.00;101723.63;5027736;28;20052;-68
2021/10/28 07:21:44;;;;;;;20.83;10.93;;;;;;;8.88;100.00;101720.00;5024861;28;20139;-68
2021/10/28 07:32:54;;;;;;;19.67;10.57;;;;;;;8.98;100.00;101709.22;5022587;28;20531;-67
2021/10/28 08:14:27;;;;;;;19.83;10.55;;;;;;;9.67;100.00;101663.91;5026468;28;20467;-67
2021/10/28 08:17:09;;;;;;;17.30;9.45;;;;;;;9.68;100.00;101669.22;5030626;28;20077;-67
2021/10/28 08:19:44;;;;;;;18.30;9.73;;;;;;;9.79;100.00;101661.09;5024755;28;20164;-67
2021/10/28 08:22:17;;;;;;;22.45;10.57;;;;;;;9.86;100.00;101659.19;5022616;28;20068;-67
2021/10/28 08:30:28;;;;;;;20.20;9.85;;;;;;;10.01;100.00;101648.28;5026607;28;20147;-67
2021/10/28 08:32:58;;;;;;;18.38;9.10;;;;;;;10.14;100.00;101648.06;5026072;28;20470;-67
2021/10/28 08:35:40;;;;;;;20.83;9.63;;;;;;;10.21;100.00;101639.03;5022452;28;20232;-67
2021/10/28 08:38:08;;;;;;;19.85;9.57;;;;;;;10.34;100.00;101640.63;5024565;28;20098;-67
2021/10/28 08:40:36;;;;;;;21.60;10.15;;;;;;;10.46;100.00;101640.38;5020538;28;20057;-72
2021/10/28 08:43:04;;;;;;;17.33;9.55;;;;;;;10.59;100.00;101638.38;5027733;28;20048;-71
2021/10/28 08:45:35;;;;;;;19.00;10.18;;;;;;;10.64;100.00;101636.50;5027783;28;20041;-71
2021/10/28 08:48:07;;;;;;;18.80;9.30;;;;;;;10.78;100.00;101628.19;5025523;28;20052;-71
2021/10/28 08:50:39;;;;;;;22.67;11.52;;;;;;;10.84;100.00;101638.78;5022026;28;20053;-72
2021/10/28 08:53:31;;;;;;;21.00;9.27;;;;;;;10.98;100.00;101619.78;5018668;28;20049;-71
2021/10/28 08:56:00;;;;;;;21.00;10.10;;;;;;;10.99;99.46;101621.53;5022591;28;20524;-71
2021/10/28 09:24:09;;;;;;;18.27;9.20;;;;;;;11.95;94.64;101584.56;5023570;28;20580;-71
2021/10/28 09:26:49;;;;;;;22.73;10.20;;;;;;;12.25;94.19;101588.22;5022938;28;20625;-72
2021/10/28 09:29:30;;;;;;;17.65;9.30;;;;;;;12.21;93.48;101583.91;5021610;28;20057;-72
2021/10/28 09:32:06;;;;;;;18.88;10.20;;;;;;;12.25;92.93;101587.34;5026086;28;20044;-72
2021/10/28 09:34:53;;;;;;;16.92;9.82;;;;;;;12.19;92.19;101577.72;5024541;28;20124;-73
2021/10/28 09:46:34;;;;;;;18.60;9.25;;;;;;;12.84;90.11;101557.13;5028510;28;20107;-73
2021/10/28 09:51:57;;;;;;;18.73;8.77;;;;;;;12.94;89.12;101549.69;5029097;28;20049;-73
2021/10/28 09:54:35;;;;;;;19.73;9.45;;;;;;;13.02;89.19;101553.88;5026572;28;20123;-72
2021/10/28 09:59:52;;;;;;;16.10;8.80;;;;;;;13.33;87.84;101557.41;5029205;28;20492;-68
2021/10/28 10:02:25;;;;;;;18.23;9.07;;;;;;;13.40;86.85;101561.66;5030988;28;21160;-68
2021/10/28 10:04:55;;;;;;;16.75;8.88;;;;;;;13.48;85.36;101551.56;5031256;28;20072;-68
2021/10/28 10:07:23;;;;;;;13.88;8.40;;;;;;;13.51;84.32;101550.59;5026655;28;20532;-68
2021/10/28 10:09:52;;;;;;;15.88;8.52;;;;;;;13.55;85.02;101555.81;5023200;28;20160;-68
2021/10/28 10:12:20;;;;;;;18.73;8.73;;;;;;;13.51;85.29;101554.16;5024741;28;20488;-67
2021/10/28 10:14:49;;;;;;;14.90;8.30;;;;;;;13.44;84.28;101545.44;5024089;28;20429;-68
2021/10/28 10:17:18;;;;;;;16.45;8.50;;;;;;;13.58;84.15;101544.97;5025870;28;20719;-68
2021/10/28 10:19:50;;;;;;;13.68;8.02;;;;;;;13.76;83.46;101542.63;5024740;28;20045;-67
2021/10/28 10:22:26;;;;;;;13.77;8.43;;;;;;;13.74;81.99;101544.44;5026989;28;20095;-68
2021/10/28 10:25:11;;;;;;;17.80;9.50;;;;;;;13.94;83.80;101533.03;5027161;28;20152;-67
2021/10/28 11:23:13;;;;;;;15.77;8.20;;;;;;;14.86;74.25;101473.22;5029394;28;20049;-65
2021/10/28 11:31:38;;;;;;;13.35;7.43;;;;;;;14.80;74.62;101470.81;5006033;28;20064;-66
2021/10/28 12:47:34;;;;;;;14.50;7.00;;;;;;;15.97;72.00;101344.81;5026178;28;20782;-66
2021/10/28 12:50:33;;;;;;;13.18;6.68;;;;;;;15.90;70.13;101332.56;5026960;28;20520;-64
2021/10/28 13:04:19;;;;;;;15.38;6.82;;;;;;;16.00;70.49;101327.63;5025147;28;20144;-64
2021/10/28 13:07:02;;;;;;;14.35;6.53;;;;;;;16.17;69.38;101322.31;5024639;28;20057;-65
2021/10/28 13:48:36;;;;;;;13.25;6.13;;;;;;;16.12;70.27;101297.44;4972738;28;20447;-69
2021/10/28 13:54:02;;;;;;;14.27;6.95;;;;;;;16.01;70.45;101300.66;4965484;28;20050;-69
2021/10/28 13:59:56;;;;;;;13.98;6.20;;;;;;;16.27;70.04;101285.06;4934206;28;20062;-70
2021/10/28 14:33:37;;;;;;;14.70;6.60;;;;;;;15.98;71.45;101259.56;4968984;28;20062;-71
2021/10/28 15:28:37;;;;;;;13.63;5.40;;;;;;;14.96;73.83;101215.78;4969263;28;20085;-75
2021/10/28 15:31:34;;;;;;;10.68;5.40;;;;;;;14.90;73.87;101208.03;4966839;28;20161;-75
2021/10/28 15:37:03;;;;;;;11.32;6.05;;;;;;;14.78;74.43;101205.84;4968290;28;20141;-74
2021/10/28 15:39:38;;;;;;;14.60;5.45;;;;;;;14.76;74.77;101197.84;4968244;28;20078;-74
2021/10/28 15:42:37;;;;;;;10.10;5.68;;;;;;;14.72;74.47;101194.44;4963911;28;20120;-74
2021/10/28 15:54:07;;;;;;;10.80;5.55;;;;;;;14.36;75.50;101203.09;4944679;28;20055;-76
2021/10/28 15:56:49;;;;;;;;;;;;;;;14.33;76.40;101197.00;4966456;28;20169;-68
2021/10/28 16:21:54;;;;;;;10.63;5.55;;;;;;;13.72;78.86;101166.38;4965649;28;20089;-68
2021/10/28 16:24:24;;;;;;;11.40;5.55;;;;;;;13.69;79.16;101173.66;4966457;28;20141;-68
2021/10/28 16:26:52;;;;;;;9.90;5.40;;;;;;;13.61;79.69;101172.16;4964072;28;20268;-74
2021/10/28 16:29:22;;;;;;;11.13;5.13;;;;;;;13.56;80.16;101165.25;4965891;28;20189;-74
2021/10/28 16:31:51;;;;;;;9.85;5.00;;;;;;;13.48;80.60;101164.66;4965446;28;20144;-75
2021/10/28 16:34:24;;;;;;;13.57;5.22;;;;;;;13.40;80.92;101164.94;4968444;28;20101;-75
2021/10/28 16:36:53;;;;;;;9.65;5.20;;;;;;;13.32;81.66;101162.59;4964760;28;20124;-74
2021/10/28 16:39:22;;;;;;;12.90;6.32;;;;;;;13.17;82.53;101153.28;4965174;28;20150;-73
2021/10/28 16:41:52;;;;;;;13.23;6.43;;;;;;;13.09;83.12;101150.00;4965746;28;20246;-74
2021/10/28 16:44:22;;;;;;;11.10;5.82;;;;;;;13.04;83.34;101154.66;4967159;28;20054;-74
2021/10/28 16:46:52;;;;;;;10.07;5.18;;;;;;;12.97;83.94;101156.69;4967191;28;20281;-73
2021/10/28 16:49:20;;;;;;;9.38;5.75;;;;;;;12.93;83.96;101157.75;4968121;28;20067;-74
2021/10/28 16:51:48;;;;;;;9.43;5.18;;;;;;;12.87;84.33;101156.19;4969812;28;20054;-73
2021/10/28 16:54:19;;;;;;;11.73;5.38;;;;;;;12.87;84.09;101147.25;4965209;28;20058;-73
2021/10/28 16:56:48;;;;;;;10.48;5.15;;;;;;;12.79;84.66;101157.41;4967329;28;20526;-73
2021/10/28 16:59:18;;;;;;;10.43;5.13;;;;;;;12.73;84.72;101152.25;4966620;28;20569;-73
2021/10/28 17:01:47;;;;;;;10.93;5.25;;;;;;;12.63;85.41;101151.69;4967587;28;20524;-73
2021/10/28 17:04:15;;;;;;;11.75;5.60;;;;;;;12.62;85.49;101158.00;4971059;28;20065;-74
2021/10/28 17:06:43;;;;;;;8.32;5.40;;;;;;;12.52;86.18;101150.28;4967752;28;20130;-75
2021/10/28 17:09:11;;;;;;;10.57;5.25;;;;;;;12.48;86.22;101139.72;4970977;28;20058;-75
2021/10/28 17:11:40;;;;;;;11.52;5.47;;;;;;;12.45;86.47;101150.56;4967033;28;20072;-74
2021/10/28 17:14:09;;;;;;;12.57;5.15;;;;;;;12.36;86.89;101142.84;4970590;28;20149;-76
2021/10/28 17:16:39;;;;;;;11.63;5.82;;;;;;;12.32;87.21;101142.94;4972365;28;20061;-75
2021/10/28 17:19:08;;;;;;;12.45;6.35;;;;;;;12.28;87.79;101145.78;4970828;28;20449;-74
2021/10/28 17:21:36;;;;;;;11.55;6.43;;;;;;;12.30;87.62;101128.75;4983573;28;20145;-74
2021/10/28 17:24:06;;;;;;;11.63;6.35;;;;;;;12.27;87.61;101136.88;4987219;28;20074;-74
2021/10/28 17:26:35;;;;;;;12.23;6.20;;;;;;;12.24;87.81;101134.31;4986305;28;20147;-74
2021/10/28 17:29:04;;;;;;;14.13;6.15;;;;;;;12.26;87.56;101139.59;4987091;28;20046;-74
2021/10/28 17:31:33;;;;;;;12.20;6.00;;;;;;;12.23;87.64;101137.91;4989710;28;20140;-74
2021/10/28 17:34:03;;;;;;;12.23;6.53;;;;;;;12.24;87.75;101134.31;4990446;28;20541;-75
2021/10/28 17:36:33;;;;;;;10.27;6.05;;;;;;;12.12;87.93;101130.25;4990252;28;20173;-74
2021/10/28 17:39:04;;;;;;;10.93;6.15;;;;;;;12.16;87.87;101128.34;4989194;28;20072;-74
2021/10/28 17:41:32;;;;;;;10.43;5.50;;;;;;;12.21;87.80;101122.81;4988711;28;20490;-74
2021/10/28 17:44:00;;;;;;;11.77;6.63;;;;;;;12.17;87.79;101127.41;4990008;28;20046;-74
2021/10/28 17:46:28;;;;;;;12.70;6.60;;;;;;;12.19;87.63;101113.97;4988704;28;20723;-74
2021/10/28 17:48:56;;;;;;;11.98;5.65;;;;;;;12.18;87.62;101113.13;4991580;28;20045;-74
2021/10/28 17:51:24;;;;;;;12.45;6.65;;;;;;;12.18;87.64;101120.28;4989693;28;20139;-74
2021/10/28 17:53:53;;;;;;;12.55;6.35;;;;;;;12.13;88.13;101126.66;4985327;28;20076;-74
2021/10/28 17:56:21;;;;;;;10.77;6.10;;;;;;;12.05;88.71;101125.16;4988904;28;20058;-73
2021/10/28 17:58:49;;;;;;;12.73;6.35;;;;;;;12.01;88.76;101134.22;4985777;28;20048;-74
2021/10/28 18:01:19;;;;;;;12.68;5.82;;;;;;;12.06;88.69;101126.91;4988388;28;20140;-74
2021/10/28 18:03:47;;;;;;;11.48;6.25;;;;;;;11.94;89.17;101136.22;4986186;28;20054;-73
2021/10/28 18:06:16;;;;;;;13.68;6.75;;;;;;;11.87;89.65;101132.84;4988049;28;20049;-74
2021/10/28 18:08:43;;;;;;;10.77;6.20;;;;;;;11.82;90.16;101133.94;4991453;28;20548;-74
2021/10/28 18:11:13;;;;;;;12.93;6.57;;;;;;;11.84;90.62;101132.06;4984393;28;20082;-74
2021/10/28 18:13:40;;;;;;;18.23;6.85;;;;;;;11.86;90.58;101128.41;4988961;28;20053;-74
2021/10/28 18:16:08;;;;;;;14.90;6.88;;;;;;;11.72;91.14;101130.66;4986522;28;20136;-73
2021/10/28 18:18:37;;;;;;;13.23;7.15;;;;;;;11.64;91.69;101125.56;4997165;28;20136;-74
2021/10/28 18:21:06;;;;;;;12.18;7.20;;;;;;;11.67;91.68;101121.91;4986734;28;20057;-73
2021/10/28 18:23:44;;;;;;;14.65;7.43;;;;;;;11.68;91.99;101123.66;4990237;28;20069;-74
2021/10/28 18:26:13;;;;;;;12.02;7.15;;;;;;;11.60;92.73;101121.25;4992104;28;20478;-74
2021/10/28 18:28:41;;;;;;;13.65;7.13;;;;;;;11.52;92.72;101118.81;4987921;28;20108;-74
2021/10/28 18:31:12;;;;;;;12.40;7.18;;;;;;;11.51;92.96;101116.16;4990392;28;20065;-74
2021/10/28 18:33:41;;;;;;;11.32;6.85;;;;;;;11.51;93.36;101119.75;4987836;28;20072;-74
2021/10/28 18:36:13;;;;;;;14.18;7.50;;;;;;;11.47;93.62;101118.06;4987614;28;20084;-75
2021/10/28 18:38:45;;;;;;;14.15;7.40;;;;;;;11.42;93.94;101117.34;4993768;28;20050;-74
2021/10/28 18:41:15;;;;;;;15.88;8.38;;;;;;;11.46;93.97;101115.44;4988291;28;20050;-75
2021/10/28 18:43:43;;;;;;;13.52;7.40;;;;;;;11.45;94.39;101117.25;4987564;28;20609;-74
2021/10/28 18:46:11;;;;;;;12.60;7.68;;;;;;;11.44;94.51;101115.53;4987232;28;20062;-75
2021/10/28 18:48:40;;;;;;;13.65;7.00;;;;;;;11.38;95.04;101126.38;4987101;28;20133;-74
2021/10/28 18:51:09;;;;;;;13.30;7.90;;;;;;;11.36;95.29;101110.41;4989673;28;20164;-74
2021/10/28 18:53:40;;;;;;;13.80;6.82;;;;;;;11.37;95.06;101109.50;4985054;28;20399;-74
2021/10/28 18:56:08;;;;;;;11.77;6.80;;;;;;;11.31;95.53;101112.34;4990273;28;20229;-75
2021/10/28 18:58:37;;;;;;;17.63;8.20;;;;;;;11.38;95.41;101108.53;4986460;28;20472;-75
2021/10/28 19:01:05;;;;;;;15.65;7.72;;;;;;;11.39;95.43;101104.97;4986664;28;20461;-75
2021/10/28 19:03:34;;;;;;;16.17;8.48;;;;;;;11.39;95.60;101104.06;4987197;28;20452;-75
2021/10/28 19:06:02;;;;;;;12.80;8.10;;;;;;;11.38;95.56;101107.69;4991883;28;20050;-76
2021/10/28 19:08:30;;;;;;;14.55;7.90;;;;;;;11.35;95.66;101108.63;4982129;28;20053;-75
2021/10/28 19:10:59;;;;;;;13.63;7.85;;;;;;;11.29;95.86;101111.53;4983091;28;20872;-73
2021/10/28 19:13:27;;;;;;;13.48;7.40;;;;;;;11.33;96.33;101122.97;4985987;28;20057;-74
2021/10/28 19:15:57;;;;;;;17.05;8.55;;;;;;;11.33;96.51;101112.28;4985668;28;20073;-74